Time;durP1;ratioP1;P1;durP2;ratioP2;P2;SDS_P1;SDS_P2;PMS_P1;PMS_P2;Temp;Humidity;BMP_temperature;BMP_pressure;BME280_temperature;BME280_humidity;BME280_pressure;Samples;Min_cycle;Max_cycle;Signal;HPM_P1;HPM_P2
2020/12/23 00:01:20;;;;;;;3.20;1.60;;;10.40;94.90;;;;;;5071580;28;20449;-71
2020/12/23 00:03:46;;;;;;;2.75;1.73;;;10.40;94.90;;;;;;5068319;28;20404;-71
2020/12/23 00:06:13;;;;;;;2.17;1.48;;;10.30;95.10;;;;;;5071650;28;20432;-71
2020/12/23 00:08:40;;;;;;;4.30;1.30;;;10.30;95.30;;;;;;5062169;28;20413;-71
2020/12/23 00:11:06;;;;;;;2.90;1.50;;;10.30;95.50;;;;;;5051632;28;20425;-72
2020/12/23 00:13:32;;;;;;;1.50;1.20;;;10.30;95.60;;;;;;5033744;28;20467;-71
2020/12/23 00:15:59;;;;;;;4.32;1.30;;;10.30;95.50;;;;;;5054097;28;20838;-71
2020/12/23 00:18:28;;;;;;;1.98;1.33;;;10.30;95.30;;;;;;5071344;28;20446;-71
2020/12/23 00:20:54;;;;;;;2.55;1.27;;;10.30;95.40;;;;;;5068955;28;20444;-72
2020/12/23 00:23:20;;;;;;;1.40;1.20;;;10.20;95.50;;;;;;5071532;28;20488;-71
2020/12/23 00:25:47;;;;;;;2.10;1.27;;;10.20;95.70;;;;;;5067588;28;20884;-72
2020/12/23 00:28:13;;;;;;;3.67;1.23;;;10.20;95.80;;;;;;5071064;28;20844;-72
2020/12/23 00:30:41;;;;;;;20.55;13.13;;;10.20;95.90;;;;;;5049964;28;20434;-72
2020/12/23 00:33:23;;;;;;;19.52;12.85;;;10.20;96.10;;;;;;5071460;28;20736;-71
2020/12/23 00:35:50;;;;;;;16.00;10.40;;;10.20;96.10;;;;;;5067406;28;20428;-71
2020/12/23 00:38:18;;;;;;;12.80;7.95;;;10.20;96.20;;;;;;5070334;28;20411;-71
2020/12/23 00:40:44;;;;;;;11.60;7.05;;;10.20;96.40;;;;;;5041225;28;20711;-71
2020/12/23 00:43:11;;;;;;;14.23;7.38;;;10.10;96.40;;;;;;5051009;28;20409;-71
2020/12/23 00:45:38;;;;;;;11.57;6.85;;;10.10;96.40;;;;;;5053057;28;20813;-71
2020/12/23 00:48:04;;;;;;;12.35;6.80;;;10.00;96.50;;;;;;5053457;28;20412;-71
2020/12/23 00:50:31;;;;;;;13.00;5.95;;;10.00;96.70;;;;;;5067136;28;20466;-71
2020/12/23 00:52:58;;;;;;;8.43;5.50;;;10.00;96.70;;;;;;5053636;28;20399;-71
2020/12/23 00:55:24;;;;;;;6.97;3.58;;;10.00;96.80;;;;;;5070668;28;20427;-71
2020/12/23 00:57:50;;;;;;;10.33;6.77;;;10.00;96.90;;;;;;5049368;28;21095;-72
2020/12/23 01:00:17;;;;;;;12.65;8.30;;;10.10;96.70;;;;;;5055696;28;20810;-71
2020/12/23 01:02:43;;;;;;;16.73;11.23;;;10.10;96.50;;;;;;5062917;28;20505;-72
2020/12/23 01:05:09;;;;;;;17.27;11.85;;;10.10;96.60;;;;;;5053214;28;20412;-71
2020/12/23 01:07:36;;;;;;;8.90;5.63;;;10.10;96.70;;;;;;5066496;28;20499;-71
2020/12/23 01:10:03;;;;;;;14.35;5.45;;;10.10;96.50;;;;;;5053578;28;20465;-72
2020/12/23 01:12:32;;;;;;;9.20;5.28;;;10.10;96.60;;;;;;5048964;28;20420;-72
2020/12/23 01:14:59;;;;;;;10.60;5.97;;;10.10;96.70;;;;;;5070474;28;20438;-71
2020/12/23 01:17:30;;;;;;;7.90;5.37;;;10.00;96.80;;;;;;5045799;28;20413;-71
2020/12/23 01:19:56;;;;;;;9.95;5.07;;;10.00;96.90;;;;;;5049724;28;20413;-72
2020/12/23 01:22:24;;;;;;;8.63;4.93;;;10.00;96.90;;;;;;5049449;28;20412;-71
2020/12/23 01:24:51;;;;;;;7.43;4.60;;;9.90;97.00;;;;;;5070610;28;20403;-71
2020/12/23 01:27:17;;;;;;;8.27;5.10;;;9.90;97.00;;;;;;5053022;28;20419;-71
2020/12/23 01:29:46;;;;;;;8.20;5.18;;;9.80;97.10;;;;;;5049135;28;20419;-71
2020/12/23 01:32:15;;;;;;;8.68;5.18;;;9.80;97.20;;;;;;5070300;28;20428;-71
2020/12/23 01:34:44;;;;;;;8.40;4.65;;;9.80;97.40;;;;;;5050701;28;20791;-72
2020/12/23 01:37:10;;;;;;;6.80;4.65;;;9.80;97.30;;;;;;5032931;28;20471;-71
2020/12/23 01:39:39;;;;;;;8.27;5.38;;;9.70;97.30;;;;;;5060040;28;20415;-71
2020/12/23 01:42:06;;;;;;;6.82;4.55;;;9.70;97.50;;;;;;5070403;28;20474;-71
2020/12/23 01:44:37;;;;;;;7.22;4.78;;;9.70;97.40;;;;;;5066839;28;20416;-71
2020/12/23 01:47:14;;;;;;;6.75;4.38;;;9.70;97.50;;;;;;5052659;28;20859;-71
2020/12/23 01:49:43;;;;;;;9.20;4.32;;;9.70;97.60;;;;;;5043871;28;20967;-71
2020/12/23 01:52:12;;;;;;;5.40;3.65;;;9.70;97.50;;;;;;5036702;28;20853;-71
2020/12/23 01:54:38;;;;;;;6.90;4.18;;;9.70;97.60;;;;;;5039322;28;20521;-71
2020/12/23 01:57:10;;;;;;;6.93;4.63;;;9.70;97.60;;;;;;5074239;28;20472;-71
2020/12/23 01:59:37;;;;;;;8.05;4.15;;;9.70;97.70;;;;;;5048236;28;20439;-71
2020/12/23 02:02:34;;;;;;;7.13;4.40;;;9.70;97.70;;;;;;5074066;28;20465;-72
2020/12/23 02:05:10;;;;;;;8.27;4.25;;;9.70;97.60;;;;;;5070721;28;20423;-71
2020/12/23 02:07:37;;;;;;;7.67;3.80;;;9.60;97.60;;;;;;5056378;28;20411;-71
2020/12/23 02:10:06;;;;;;;7.32;3.90;;;9.60;97.60;;;;;;5053019;28;20418;-71
2020/12/23 02:12:33;;;;;;;7.40;4.05;;;9.60;97.70;;;;;;5073974;28;20478;-71
2020/12/23 02:15:13;;;;;;;6.47;3.23;;;9.60;97.70;;;;;;5056179;28;20864;-71
2020/12/23 02:17:41;;;;;;;5.78;3.20;;;9.60;97.80;;;;;;5074065;28;20400;-71
2020/12/23 02:20:10;;;;;;;6.20;3.38;;;9.60;97.80;;;;;;5056067;28;20512;-71
2020/12/23 02:22:43;;;;;;;6.55;3.33;;;9.60;97.50;;;;;;5052017;28;20871;-71
2020/12/23 02:25:10;;;;;;;5.97;3.55;;;9.60;97.60;;;;;;5073473;28;20828;-71
2020/12/23 02:27:40;;;;;;;8.13;4.38;;;9.60;97.80;;;;;;5069545;28;20461;-72
2020/12/23 02:30:09;;;;;;;7.28;4.20;;;9.60;97.90;;;;;;5056046;28;20411;-72
2020/12/23 02:32:36;;;;;;;7.65;3.67;;;9.60;97.80;;;;;;5052327;28;20867;-71
2020/12/23 02:35:07;;;;;;;9.73;3.20;;;9.60;97.90;;;;;;5055842;28;20529;-71
2020/12/23 02:37:33;;;;;;;6.80;3.28;;;9.60;97.70;;;;;;5070389;28;20995;-71
2020/12/23 02:40:00;;;;;;;10.93;4.53;;;9.50;97.60;;;;;;5073279;28;20415;-72
2020/12/23 02:42:29;;;;;;;8.55;4.20;;;9.50;97.60;;;;;;5069778;28;20412;-72
2020/12/23 02:44:56;;;;;;;9.00;4.68;;;9.50;97.80;;;;;;5073328;28;20469;-71
2020/12/23 02:47:23;;;;;;;8.52;4.18;;;9.40;97.70;;;;;;5052818;28;20871;-71
2020/12/23 02:49:49;;;;;;;8.07;4.20;;;9.40;98.00;;;;;;5055488;28;20404;-71
2020/12/23 02:52:18;;;;;;;8.75;4.10;;;9.40;98.40;;;;;;5070224;28;20412;-71
2020/12/23 02:54:45;;;;;;;7.20;4.00;;;9.40;98.00;;;;;;5052910;28;20801;-71
2020/12/23 02:57:11;;;;;;;8.45;4.25;;;9.40;98.00;;;;;;5052787;28;20796;-71
2020/12/23 02:59:39;;;;;;;6.72;4.00;;;9.40;98.10;;;;;;5040339;28;20437;-71
2020/12/23 03:02:09;;;;;;;7.88;3.85;;;9.30;97.90;;;;;;5052957;28;20482;-71
2020/12/23 03:04:35;;;;;;;5.20;3.58;;;9.20;97.90;;;;;;5064589;28;20419;-71
2020/12/23 03:07:04;;;;;;;5.73;4.00;;;9.20;98.10;;;;;;5073022;28;20447;-71
2020/12/23 03:09:31;;;;;;;6.43;3.80;;;9.20;98.10;;;;;;5051631;28;20415;-71
2020/12/23 03:11:59;;;;;;;5.00;3.35;;;9.20;98.20;;;;;;5055152;28;20803;-72
2020/12/23 03:14:28;;;;;;;6.30;3.40;;;9.20;98.20;;;;;;5060505;28;20519;-71
2020/12/23 03:16:54;;;;;;;7.47;3.40;;;9.10;98.10;;;;;;5052809;28;20406;-71
2020/12/23 03:19:20;;;;;;;7.47;3.50;;;9.10;98.30;;;;;;5036655;28;20407;-71
2020/12/23 03:21:47;;;;;;;5.88;3.80;;;9.10;98.40;;;;;;5072488;28;20439;-71
2020/12/23 03:24:13;;;;;;;5.65;3.35;;;9.10;98.50;;;;;;5068895;28;20840;-71
2020/12/23 03:26:40;;;;;;;6.82;3.40;;;9.10;98.60;;;;;;5054955;28;20501;-71
2020/12/23 03:29:07;;;;;;;5.75;3.58;;;9.20;98.50;;;;;;5072416;28;20435;-71
2020/12/23 03:31:33;;;;;;;7.03;3.20;;;9.20;98.50;;;;;;5050673;28;20455;-71
2020/12/23 03:33:59;;;;;;;5.30;3.27;;;9.10;98.70;;;;;;5035014;28;20472;-71
2020/12/23 03:36:26;;;;;;;8.45;3.40;;;9.10;98.50;;;;;;5064469;28;20463;-71
2020/12/23 03:38:52;;;;;;;8.57;2.80;;;9.10;98.40;;;;;;5072168;28;20919;-71
2020/12/23 03:41:24;;;;;;;6.20;3.40;;;9.10;98.30;;;;;;5057839;28;20841;-71
2020/12/23 03:43:50;;;;;;;6.43;3.28;;;9.20;98.40;;;;;;5034975;28;20409;-71
2020/12/23 03:46:21;;;;;;;249.27;87.77;;;9.20;98.30;;;;;;5049363;28;20482;-71
2020/12/23 03:48:50;;;;;;;118.83;43.13;;;9.20;98.40;;;;;;5034769;28;20432;-71
2020/12/23 03:51:16;;;;;;;123.40;45.38;;;9.20;98.20;;;;;;5032013;28;20466;-71
2020/12/23 03:53:45;;;;;;;75.63;28.47;;;9.20;98.20;;;;;;5052037;28;20448;-72
2020/12/23 03:56:11;;;;;;;18.67;7.50;;;9.20;98.30;;;;;;5051611;28;20514;-71
2020/12/23 03:58:38;;;;;;;15.57;6.53;;;9.30;98.40;;;;;;5053456;28;20832;-71
2020/12/23 04:01:05;;;;;;;29.98;12.65;;;9.40;98.20;;;;;;5050229;28;21185;-71
2020/12/23 04:03:31;;;;;;;30.20;12.37;;;9.40;98.00;;;;;;5052807;28;20442;-72
2020/12/23 04:05:58;;;;;;;13.80;6.15;;;9.40;98.00;;;;;;5054612;28;20415;-71
2020/12/23 04:08:24;;;;;;;28.38;10.95;;;9.30;98.10;;;;;;5051690;28;20413;-71
2020/12/23 04:10:51;;;;;;;27.38;11.30;;;9.30;98.00;;;;;;5051244;28;20413;-72
2020/12/23 04:13:17;;;;;;;23.05;8.50;;;9.30;98.00;;;;;;5049049;28;20822;-72
2020/12/23 04:15:43;;;;;;;16.73;7.38;;;9.20;98.00;;;;;;5051169;28;20550;-71
2020/12/23 04:18:11;;;;;;;13.97;5.13;;;9.20;98.00;;;;;;5058008;28;20450;-71
2020/12/23 04:20:40;;;;;;;6.38;3.40;;;9.20;98.00;;;;;;5071606;28;20419;-71
2020/12/23 04:23:09;;;;;;;7.93;3.65;;;9.20;98.20;;;;;;5049447;28;20414;-71
2020/12/23 04:25:36;;;;;;;5.67;2.60;;;9.20;98.20;;;;;;5071454;28;20396;-71
2020/12/23 04:28:03;;;;;;;7.65;3.25;;;9.20;98.30;;;;;;5067840;28;20514;-71
2020/12/23 04:30:29;;;;;;;4.43;2.38;;;9.20;97.90;;;;;;5053657;28;20791;-71
2020/12/23 04:32:56;;;;;;;5.07;2.70;;;9.20;97.90;;;;;;5050751;28;20447;-71
2020/12/23 04:35:23;;;;;;;6.37;2.97;;;9.30;97.70;;;;;;5033305;28;20479;-71
2020/12/23 04:37:49;;;;;;;7.57;3.90;;;9.20;97.80;;;;;;5033962;28;20471;-71
2020/12/23 04:40:15;;;;;;;6.22;3.10;;;9.10;97.70;;;;;;5065180;28;20404;-71
2020/12/23 04:42:44;;;;;;;5.47;2.50;;;9.10;97.80;;;;;;5053321;28;20399;-71
2020/12/23 04:45:11;;;;;;;6.47;2.47;;;9.20;97.40;;;;;;5049747;28;20443;-71
2020/12/23 04:47:38;;;;;;;4.47;2.70;;;9.20;97.20;;;;;;5053658;28;20449;-71
2020/12/23 04:50:04;;;;;;;6.83;2.57;;;9.20;97.20;;;;;;5066882;28;20407;-71
2020/12/23 04:52:37;;;;;;;7.90;2.60;;;9.10;97.00;;;;;;5070968;28;20480;-71
2020/12/23 04:55:06;;;;;;;6.90;3.00;;;9.00;97.00;;;;;;5042198;28;20480;-71
2020/12/23 04:57:35;;;;;;;6.25;3.05;;;8.90;97.20;;;;;;5033219;28;20398;-71
2020/12/23 05:00:05;;;;;;;8.18;2.88;;;8.90;97.60;;;;;;5059995;28;20411;-72
2020/12/23 05:02:34;;;;;;;6.03;2.40;;;8.90;97.60;;;;;;5070931;28;20414;-71
2020/12/23 05:05:15;;;;;;;6.70;2.65;;;8.90;97.70;;;;;;5051923;28;20419;-71
2020/12/23 05:07:45;;;;;;;11.35;6.07;;;8.90;97.40;;;;;;5052850;28;20468;-72
2020/12/23 05:10:11;;;;;;;14.30;6.85;;;8.80;97.30;;;;;;5050063;28;20782;-71
2020/12/23 05:12:38;;;;;;;12.23;5.35;;;8.70;97.30;;;;;;5070477;28;20419;-71
2020/12/23 05:15:06;;;;;;;14.27;4.60;;;8.70;97.40;;;;;;5052924;28;20428;-71
2020/12/23 05:17:35;;;;;;;6.50;3.40;;;8.60;97.40;;;;;;5066735;28;20407;-71
2020/12/23 05:20:06;;;;;;;9.57;3.25;;;8.60;97.50;;;;;;5070607;28;20437;-71
2020/12/23 05:22:33;;;;;;;6.25;3.38;;;8.50;97.70;;;;;;5066460;28;20477;-71
2020/12/23 05:25:02;;;;;;;4.90;3.20;;;8.50;97.60;;;;;;5053178;28;20480;-71
2020/12/23 05:27:32;;;;;;;9.85;3.42;;;8.40;97.60;;;;;;5066918;28;20411;-71
2020/12/23 05:30:02;;;;;;;7.80;3.50;;;8.40;97.80;;;;;;5070477;28;20957;-71
2020/12/23 05:32:33;;;;;;;8.10;3.28;;;8.30;97.80;;;;;;5056576;28;20461;-71
2020/12/23 05:35:03;;;;;;;7.43;2.80;;;8.30;97.90;;;;;;5032965;28;20514;-71
2020/12/23 05:37:32;;;;;;;6.57;2.65;;;8.20;97.70;;;;;;5056013;28;20418;-71
2020/12/23 05:39:59;;;;;;;647.30;430.17;;;8.20;97.80;;;;;;5070234;28;20855;-71
2020/12/23 05:42:27;;;;;;;65.90;38.63;;;8.10;97.90;;;;;;5066556;28;20732;-71
2020/12/23 05:44:57;;;;;;;17.40;9.98;;;8.10;97.70;;;;;;5053326;28;20418;-71
2020/12/23 05:47:26;;;;;;;9.23;6.03;;;8.10;97.70;;;;;;5066821;28;20801;-72
2020/12/23 05:49:55;;;;;;;22.38;16.83;;;8.00;97.60;;;;;;5053229;28;20477;-71
2020/12/23 05:52:23;;;;;;;21.57;13.17;;;8.00;97.70;;;;;;5050224;28;20407;-71
2020/12/23 05:54:51;;;;;;;13.13;7.47;;;7.90;97.70;;;;;;5068840;28;20420;-71
2020/12/23 05:57:18;;;;;;;22.05;11.20;;;7.90;98.10;;;;;;5052878;28;20457;-70
2020/12/23 05:59:45;;;;;;;31.30;21.85;;;7.90;98.10;;;;;;5042398;28;20521;-70
2020/12/23 06:02:13;;;;;;;20.15;14.50;;;8.00;98.20;;;;;;5070045;28;20866;-70
2020/12/23 06:04:43;;;;;;;21.02;11.38;;;7.90;98.00;;;;;;5065956;28;20770;-70
2020/12/23 06:07:11;;;;;;;17.58;7.60;;;7.90;98.10;;;;;;5069833;28;20836;-70
2020/12/23 06:09:47;;;;;;;10.65;5.90;;;8.10;98.20;;;;;;5066467;28;20403;-70
2020/12/23 06:12:21;;;;;;;11.18;6.15;;;8.10;97.80;;;;;;5052313;28;20494;-70
2020/12/23 06:14:56;;;;;;;12.65;6.43;;;8.10;97.80;;;;;;5066262;28;20817;-70
2020/12/23 06:17:25;;;;;;;11.02;6.03;;;8.00;97.60;;;;;;5052542;28;20477;-70
2020/12/23 06:19:56;;;;;;;10.48;6.00;;;7.90;97.70;;;;;;5066371;28;20399;-70
2020/12/23 06:22:25;;;;;;;9.45;4.72;;;7.80;97.90;;;;;;5070721;28;20408;-70
2020/12/23 06:24:52;;;;;;;24.50;21.52;;;7.80;98.10;;;;;;5049058;28;20748;-70
2020/12/23 06:27:18;;;;;;;14.90;11.45;;;7.80;98.10;;;;;;5070232;28;20419;-70
2020/12/23 06:29:47;;;;;;;10.48;5.35;;;7.80;98.00;;;;;;5066313;28;20941;-70
2020/12/23 06:32:25;;;;;;;21.00;11.82;;;7.90;98.40;;;;;;5052289;28;20407;-70
2020/12/23 06:34:58;;;;;;;25.25;20.92;;;8.00;97.80;;;;;;5049025;28;20463;-70
2020/12/23 06:37:33;;;;;;;20.75;14.98;;;7.90;97.80;;;;;;5056514;28;20764;-70
2020/12/23 06:40:10;;;;;;;21.05;14.43;;;7.80;97.70;;;;;;5073306;28;20469;-70
2020/12/23 06:42:46;;;;;;;19.27;15.27;;;7.80;97.90;;;;;;5053319;28;20715;-70
2020/12/23 06:45:13;;;;;;;19.38;13.18;;;7.90;98.30;;;;;;5064400;28;20925;-69
2020/12/23 06:47:41;;;;;;;12.50;8.20;;;7.90;97.80;;;;;;5068963;28;20446;-70
2020/12/23 06:50:15;;;;;;;11.20;6.75;;;7.90;97.90;;;;;;5055726;28;20787;-69
2020/12/23 06:52:43;;;;;;;8.40;4.63;;;7.80;98.00;;;;;;5048726;28;20461;-69
2020/12/23 06:55:14;;;;;;;12.48;4.68;;;7.90;98.40;;;;;;5052099;28;20969;-70
2020/12/23 06:57:40;;;;;;;10.23;6.10;;;8.00;98.20;;;;;;5051127;28;20415;-70
2020/12/23 07:00:28;;;;;;;12.50;6.05;;;8.00;98.00;;;;;;5071993;28;20462;-69
2020/12/23 07:02:59;;;;;;;10.18;5.60;;;8.00;98.00;;;;;;5048216;28;20409;-70
2020/12/23 07:05:28;;;;;;;11.35;5.53;;;8.00;98.10;;;;;;5052037;28;20441;-70
2020/12/23 07:08:00;;;;;;;7.40;4.93;;;8.00;98.10;;;;;;5060845;28;20889;-70
2020/12/23 07:10:32;;;;;;;9.63;5.20;;;8.00;98.20;;;;;;5072235;28;20423;-70
2020/12/23 07:13:13;;;;;;;9.48;4.85;;;8.00;98.10;;;;;;5068988;28;20415;-70
2020/12/23 07:15:44;;;;;;;10.35;4.50;;;8.10;98.10;;;;;;5054945;28;20842;-70
2020/12/23 07:18:17;;;;;;;10.23;4.78;;;8.10;97.90;;;;;;5043297;28;20454;-70
2020/12/23 07:21:01;;;;;;;8.98;4.05;;;8.10;97.90;;;;;;5035170;28;20929;-70
2020/12/23 07:23:33;;;;;;;11.45;4.43;;;8.30;98.00;;;;;;5057679;28;20474;-70
2020/12/23 07:26:10;;;;;;;8.43;4.32;;;8.30;97.90;;;;;;5071658;28;20852;-70
2020/12/23 07:28:39;;;;;;;10.05;4.95;;;8.30;97.90;;;;;;5044832;28;20467;-70
2020/12/23 07:31:07;;;;;;;11.20;4.20;;;8.30;98.00;;;;;;5052337;28;20398;-69
2020/12/23 07:33:40;;;;;;;8.35;4.35;;;8.40;98.20;;;;;;5031884;28;20409;-70
2020/12/23 07:36:08;;;;;;;11.68;4.22;;;8.40;97.80;;;;;;5052436;28;20448;-70
2020/12/23 07:38:37;;;;;;;10.82;4.75;;;8.40;97.90;;;;;;5034004;28;20827;-70
2020/12/23 07:41:04;;;;;;;11.73;6.10;;;8.50;98.00;;;;;;5072755;28;20412;-70
2020/12/23 07:43:31;;;;;;;9.45;4.90;;;8.50;98.00;;;;;;5054891;28;20449;-70
2020/12/23 07:45:59;;;;;;;17.25;8.27;;;8.50;97.90;;;;;;5068066;28;20404;-70
2020/12/23 07:48:28;;;;;;;17.23;9.88;;;8.60;98.00;;;;;;5072309;28;20403;-70
2020/12/23 07:50:57;;;;;;;19.05;11.55;;;8.50;98.00;;;;;;5068684;28;20422;-70
2020/12/23 07:53:31;;;;;;;22.05;12.27;;;8.60;98.00;;;;;;5072051;28;20442;-70
2020/12/23 07:56:01;;;;;;;22.25;12.02;;;8.70;98.10;;;;;;5050348;28;20420;-70
2020/12/23 07:58:35;;;;;;;18.60;11.30;;;8.70;98.10;;;;;;5072333;28;20497;-70
2020/12/23 08:01:07;;;;;;;21.17;11.48;;;8.80;98.00;;;;;;5039594;28;20433;-70
2020/12/23 08:03:34;;;;;;;20.45;12.15;;;8.90;98.10;;;;;;5034899;28;20406;-70
2020/12/23 08:06:04;;;;;;;19.35;11.05;;;8.90;98.10;;;;;;5032300;28;20452;-70
2020/12/23 08:08:30;;;;;;;18.87;10.67;;;9.00;98.00;;;;;;5052916;28;20409;-70
2020/12/23 08:10:56;;;;;;;17.70;10.93;;;9.10;97.80;;;;;;5068292;28;20416;-70
2020/12/23 08:13:29;;;;;;;22.85;11.55;;;9.10;97.80;;;;;;5070727;28;20480;-70
2020/12/23 08:16:14;;;;;;;20.08;10.13;;;9.20;97.80;;;;;;5068257;28;20489;-70
2020/12/23 08:18:44;;;;;;;23.75;10.80;;;9.20;97.40;;;;;;5053911;28;20404;-70
2020/12/23 08:21:12;;;;;;;21.15;11.00;;;9.20;97.60;;;;;;5050950;28;20524;-70
2020/12/23 08:23:40;;;;;;;21.65;10.85;;;9.20;97.50;;;;;;5071363;28;20457;-70
2020/12/23 08:26:11;;;;;;;20.70;10.98;;;9.30;97.60;;;;;;5068840;28;20495;-70
2020/12/23 08:28:42;;;;;;;18.30;11.00;;;9.30;97.80;;;;;;5051346;28;20405;-70
2020/12/23 08:31:15;;;;;;;18.63;10.52;;;9.30;97.70;;;;;;5058550;28;20510;-70
2020/12/23 08:33:43;;;;;;;16.60;8.90;;;9.40;97.50;;;;;;5050010;28;20472;-70
2020/12/23 08:36:10;;;;;;;16.60;9.75;;;9.50;97.50;;;;;;5070705;28;20431;-70
2020/12/23 08:38:41;;;;;;;17.10;9.43;;;9.50;97.50;;;;;;5055261;28;20411;-70
2020/12/23 08:41:18;;;;;;;16.48;8.52;;;9.50;97.60;;;;;;5052710;28;20801;-70
2020/12/23 08:43:47;;;;;;;14.77;8.70;;;9.50;97.50;;;;;;5066858;28;20426;-70
2020/12/23 08:46:24;;;;;;;10.38;6.57;;;9.60;97.50;;;;;;5052442;28;20841;-70
2020/12/23 08:48:52;;;;;;;10.52;6.53;;;9.60;97.30;;;;;;5064977;28;20446;-70
2020/12/23 08:51:22;;;;;;;6.87;3.77;;;9.80;97.10;;;;;;5069634;28;20457;-70
2020/12/23 08:53:55;;;;;;;8.35;3.60;;;9.90;97.00;;;;;;5065855;28;20461;-71
2020/12/23 08:56:31;;;;;;;5.47;3.40;;;10.30;96.50;;;;;;5068762;28;20564;-70
2020/12/23 08:59:03;;;;;;;7.50;3.00;;;10.70;95.70;;;;;;5043240;28;20509;-70
2020/12/23 09:01:33;;;;;;;5.07;2.47;;;11.10;94.90;;;;;;5050590;28;20402;-70
2020/12/23 09:04:04;;;;;;;5.38;2.70;;;11.30;94.20;;;;;;5054771;28;20431;-70
2020/12/23 09:06:32;;;;;;;2.85;1.40;;;11.50;93.30;;;;;;5070914;28;20408;-71
2020/12/23 09:09:13;;;;;;;4.10;1.30;;;11.80;92.40;;;;;;5067327;28;20415;-70
2020/12/23 09:11:41;;;;;;;5.70;1.25;;;11.90;92.70;;;;;;5053348;28;20424;-71
2020/12/23 09:14:18;;;;;;;2.90;1.10;;;11.90;92.10;;;;;;5049776;28;20419;-70
2020/12/23 09:16:56;;;;;;;1.58;0.93;;;12.10;91.60;;;;;;5070488;28;20428;-70
2020/12/23 09:19:54;;;;;;;6.10;1.30;;;12.40;91.00;;;;;;5049757;28;20470;-71
2020/12/23 09:22:28;;;;;;;1.57;1.00;;;12.50;90.90;;;;;;5070846;28;20442;-71
2020/12/23 09:25:16;;;;;;;2.13;1.50;;;12.70;91.10;;;;;;5067077;28;20845;-71
2020/12/23 09:27:47;;;;;;;4.40;1.23;;;13.10;90.00;;;;;;5069594;28;20874;-70
2020/12/23 09:30:28;;;;;;;3.08;1.60;;;13.40;88.80;;;;;;5048335;28;20436;-71
2020/12/23 09:32:54;;;;;;;4.45;1.60;;;13.50;89.00;;;;;;5070695;28;20483;-71
2020/12/23 09:35:27;;;;;;;4.85;1.58;;;13.50;88.60;;;;;;5066817;28;20952;-71
2020/12/23 09:38:07;;;;;;;3.97;1.48;;;13.70;87.60;;;;;;5052849;28;20791;-71
2020/12/23 09:40:39;;;;;;;4.32;1.55;;;13.70;86.90;;;;;;5049797;28;20411;-71
2020/12/23 09:43:10;;;;;;;4.57;1.42;;;13.60;86.70;;;;;;5052136;28;20915;-71
2020/12/23 09:45:37;;;;;;;4.65;1.52;;;13.50;88.10;;;;;;5067080;28;20407;-70
2020/12/23 09:48:04;;;;;;;4.10;1.75;;;13.40;88.30;;;;;;5052986;28;20464;-71
2020/12/23 09:50:31;;;;;;;3.30;1.60;;;13.30;88.80;;;;;;5053106;28;20413;-71
2020/12/23 09:52:59;;;;;;;4.60;1.80;;;13.20;90.10;;;;;;5066886;28;20415;-71
2020/12/23 09:55:26;;;;;;;3.65;1.50;;;13.20;90.50;;;;;;5067904;28;20485;-70
2020/12/23 09:57:56;;;;;;;4.30;1.77;;;13.20;90.50;;;;;;5066479;28;20403;-70
2020/12/23 10:00:22;;;;;;;3.08;1.80;;;13.10;91.00;;;;;;5059130;28;20907;-71
2020/12/23 10:02:48;;;;;;;3.97;1.63;;;13.00;91.30;;;;;;5058578;28;20473;-70
2020/12/23 10:05:15;;;;;;;4.17;1.90;;;13.00;91.60;;;;;;5070276;28;20500;-71
2020/12/23 10:07:41;;;;;;;4.70;1.80;;;12.90;91.90;;;;;;5040293;28;20448;-70
2020/12/23 10:10:10;;;;;;;5.15;1.90;;;13.00;91.40;;;;;;5034334;28;20472;-71
2020/12/23 10:12:36;;;;;;;3.67;1.90;;;12.90;91.80;;;;;;5038384;28;20419;-70
2020/12/23 10:15:09;;;;;;;3.67;1.90;;;12.90;91.50;;;;;;5072818;28;20484;-71
2020/12/23 10:17:41;;;;;;;6.97;1.88;;;13.00;91.90;;;;;;5051041;28;20403;-71
2020/12/23 10:20:10;;;;;;;3.90;1.90;;;13.10;90.90;;;;;;5059303;28;20440;-71
2020/12/23 10:22:37;;;;;;;7.50;2.22;;;13.20;91.10;;;;;;5052160;28;20407;-71
2020/12/23 10:25:05;;;;;;;7.60;2.20;;;13.30;90.80;;;;;;5071728;28;20415;-71
2020/12/23 10:27:32;;;;;;;5.28;2.00;;;13.40;90.30;;;;;;5056026;28;20403;-71
2020/12/23 10:29:58;;;;;;;5.73;1.77;;;13.60;90.10;;;;;;5069835;28;20979;-71
2020/12/23 10:32:25;;;;;;;3.88;1.70;;;13.80;88.90;;;;;;5073145;28;20461;-71
2020/12/23 10:34:51;;;;;;;4.13;1.33;;;13.80;88.20;;;;;;5069976;28;20431;-71
2020/12/23 10:37:22;;;;;;;5.53;1.40;;;14.00;87.40;;;;;;5056218;28;20769;-71
2020/12/23 10:39:56;;;;;;;4.60;1.50;;;14.10;86.20;;;;;;5069835;28;20763;-71
2020/12/23 10:42:26;;;;;;;3.38;1.13;;;14.00;86.60;;;;;;5055775;28;20399;-71
2020/12/23 10:44:52;;;;;;;1.70;0.90;;;14.00;86.60;;;;;;5069950;28;20399;-71
2020/12/23 10:47:30;;;;;;;2.75;0.95;;;13.90;86.00;;;;;;5057704;28;20407;-71
2020/12/23 10:49:56;;;;;;;1.00;0.82;;;13.80;86.50;;;;;;5051285;28;20407;-71
2020/12/23 10:52:27;;;;;;;0.88;0.80;;;13.90;86.40;;;;;;5053887;28;20398;-71
2020/12/23 10:54:54;;;;;;;1.42;0.90;;;14.00;85.40;;;;;;5054100;28;20404;-71
2020/12/23 10:57:20;;;;;;;3.20;0.80;;;14.10;85.30;;;;;;5055293;28;20879;-71
2020/12/23 10:59:47;;;;;;;1.73;0.95;;;14.10;84.80;;;;;;5042946;28;20405;-71
2020/12/23 11:02:13;;;;;;;1.80;0.90;;;14.20;85.30;;;;;;5073059;28;20461;-71
2020/12/23 11:04:40;;;;;;;3.20;1.05;;;14.30;85.00;;;;;;5073098;28;20411;-71
2020/12/23 11:07:06;;;;;;;2.33;0.80;;;14.30;84.00;;;;;;5068572;28;20455;-71
2020/12/23 11:09:32;;;;;;;2.05;0.85;;;14.30;83.80;;;;;;5055128;28;20473;-71
2020/12/23 11:11:59;;;;;;;1.50;0.95;;;14.30;84.00;;;;;;5038141;28;20514;-71
2020/12/23 11:14:25;;;;;;;1.15;0.80;;;14.50;82.70;;;;;;5052883;28;20475;-71
2020/12/23 11:16:51;;;;;;;1.95;1.05;;;14.70;82.10;;;;;;5060170;28;20534;-71
2020/12/23 11:19:18;;;;;;;4.60;0.90;;;15.10;80.80;;;;;;5055205;28;20431;-71
2020/12/23 11:21:46;;;;;;;1.77;0.90;;;15.40;80.40;;;;;;5068859;28;20403;-71
2020/12/23 11:24:15;;;;;;;4.72;0.80;;;15.50;78.50;;;;;;5054882;28;20472;-71
2020/12/23 11:26:41;;;;;;;3.60;0.93;;;15.60;77.70;;;;;;5069263;28;20416;-71
2020/12/23 11:29:08;;;;;;;3.10;0.90;;;15.10;78.80;;;;;;5054788;28;20713;-71
2020/12/23 11:31:34;;;;;;;1.58;1.10;;;14.80;79.80;;;;;;5039215;28;20457;-71
2020/12/23 11:34:02;;;;;;;2.40;1.00;;;14.70;79.10;;;;;;5072550;28;20473;-71
2020/12/23 11:36:29;;;;;;;1.90;1.00;;;14.60;80.10;;;;;;5072361;28;20423;-71
2020/12/23 11:39:01;;;;;;;2.40;0.80;;;14.50;80.70;;;;;;5051236;28;20413;-71
2020/12/23 11:41:27;;;;;;;2.60;0.97;;;14.30;81.80;;;;;;5051624;28;20506;-71
2020/12/23 11:43:54;;;;;;;3.33;0.80;;;14.10;83.00;;;;;;5063994;28;20941;-71
2020/12/23 11:46:20;;;;;;;2.10;1.00;;;13.90;83.50;;;;;;5071902;28;20512;-71
2020/12/23 11:48:47;;;;;;;2.33;1.02;;;13.80;84.80;;;;;;5068590;28;20415;-71
2020/12/23 11:51:13;;;;;;;4.30;1.05;;;13.80;85.10;;;;;;5044886;28;20471;-71
2020/12/23 11:53:39;;;;;;;3.97;1.40;;;14.30;84.20;;;;;;5056442;28;20412;-71
2020/12/23 11:56:07;;;;;;;5.07;1.30;;;14.60;82.90;;;;;;5056777;28;20453;-71
2020/12/23 11:58:34;;;;;;;2.17;1.05;;;15.20;80.40;;;;;;5053339;28;20415;-71
2020/12/23 12:01:01;;;;;;;6.03;1.10;;;16.60;78.00;;;;;;5051652;28;20405;-71
2020/12/23 12:03:27;;;;;;;2.78;1.00;;;18.00;72.60;;;;;;5051739;28;20444;-71
2020/12/23 12:05:53;;;;;;;2.50;0.90;;;19.20;66.20;;;;;;5071913;28;20434;-71
2020/12/23 12:08:21;;;;;;;2.72;1.05;;;20.00;63.20;;;;;;5071791;28;20771;-71
2020/12/23 12:10:57;;;;;;;2.55;1.05;;;20.60;61.20;;;;;;5051546;28;20419;-71
2020/12/23 12:13:24;;;;;;;2.88;1.00;;;21.00;60.40;;;;;;5071337;28;20407;-72
2020/12/23 12:15:50;;;;;;;1.50;0.95;;;21.60;58.00;;;;;;5049948;28;20862;-72
2020/12/23 12:18:17;;;;;;;1.95;0.88;;;21.50;58.70;;;;;;5054143;28;20399;-72
2020/12/23 12:20:44;;;;;;;2.22;0.90;;;21.40;58.10;;;;;;5067003;28;20425;-71
2020/12/23 12:23:10;;;;;;;2.70;1.00;;;21.00;59.50;;;;;;5070982;28;20399;-71
2020/12/23 12:25:38;;;;;;;2.17;1.13;;;20.10;60.50;;;;;;5056929;28;20411;-71
2020/12/23 12:28:05;;;;;;;1.63;0.90;;;19.30;63.30;;;;;;5069939;28;20469;-71
2020/12/23 12:30:33;;;;;;;1.30;0.98;;;18.50;65.40;;;;;;5066805;28;20924;-71
2020/12/23 12:32:59;;;;;;;5.97;1.37;;;17.90;67.60;;;;;;5052887;28;20926;-71
2020/12/23 12:35:26;;;;;;;4.35;0.93;;;17.30;69.80;;;;;;5049311;28;20463;-71
2020/12/23 12:37:54;;;;;;;1.55;0.90;;;16.90;71.60;;;;;;5052974;28;20399;-71
2020/12/23 12:40:21;;;;;;;3.03;0.80;;;16.60;72.80;;;;;;5069624;28;20399;-71
2020/12/23 12:42:47;;;;;;;4.15;1.35;;;16.40;73.30;;;;;;5031890;28;20441;-71
2020/12/23 12:45:13;;;;;;;3.85;2.50;;;16.30;73.70;;;;;;5051059;28;20898;-71
2020/12/23 12:47:44;;;;;;;5.57;3.92;;;16.10;75.10;;;;;;5063199;28;21089;-71
2020/12/23 12:50:10;;;;;;;5.63;3.92;;;15.60;76.60;;;;;;5071045;28;20582;-71
2020/12/23 12:52:37;;;;;;;5.55;2.65;;;15.40;77.60;;;;;;5036953;28;20866;-71
2020/12/23 12:55:04;;;;;;;2.17;1.95;;;15.10;78.20;;;;;;5033451;28;20398;-71
2020/12/23 12:57:30;;;;;;;1.80;1.40;;;15.00;78.40;;;;;;5040370;28;20462;-71